Pamelia, New York
Current Conditions -  °F | °C
As of 6:18 PM on Wednesday 17 Dec 2014 (Local Time) from KGTB Reporting Station
Drizzle Drizzle  
Wind Chill: 28°   Ceiling: 400
Heat Index: 36°   Visibility: 8mi
Dew Point: 34°   Wind: 12mph
Humidity: 93%   Direction: 260°W
Pressure: 29.81"   Gusts: NA
Location:  44.0981°N, 75.8331°W
Report Text: KGTB 172318Z AUTO 26010KT 8SM R21/5500FT -DZ OVC004 02/01 A2981 RMK AO2
Loading
Personal Weather Stations






























Interactive Weather Map New forecast layout! Learn more

10-Day Weather Forecast

Advertisements
Track Severe Weather on mobile